PAYA Airport Information

Runway Information
Runway 02 Length 6475 ft width 150 ft
Elevation 18 ft Threshold 0 ft Heading 45
Runway 20 Length 6475 ft Width 150 ft
Elevation 30 ft Threshold 0 ft Heading 225
Runway 11 Length 7745 ft width 150 ft
Elevation 32 ft Threshold 0 ft Heading 135
Runway 29 Length 7745 ft Width 150 ft
Elevation 19 ft Threshold 0 ft Heading 315
Airport Frequencies
Airport Navaids
Type NDB Name Ocean Cape Frequency 385 KHZ
Type VOR-DME Name Yakutat Frequency 113300 KHZ
Airport Weather Information & NOTAM
ADDS - METARS form results

(1649 UTC 18 October 2018)
Data provider http://aviationweather.gov/metar/data/
 
METAR text: PAYA 181611Z AUTO 08006KT 10SM -RA BKN025 OVC032 08/07 A3011 RMK AO2 P0000 T00780067 TSNO
Conditions at: PAYA (YAKUTAT , AK, US) observed 1611 UTC 18 October 2018
Temperature: 7.8°C (46°F)
Dewpoint: 6.7°C (44°F) [RH = 93%]
Pressure (altimeter): 30.11 inches Hg (1019.7 mb)
Winds: from the E (80 degrees) at 7 MPH (6 knots; 3.1 m/s)
Visibility: 10 or more miles (16+ km)
Ceiling: 2500 feet AGL
Clouds: broken clouds at 2500 feet AGL
overcast cloud deck at 3200 feet AGL
Weather: -RA  (light rain)

METAR text: PAYA 181601Z AUTO 07006KT 10SM -RA FEW020 SCT027 OVC033 08/07 A3010 RMK AO2 P0000 T00830067 TSNO
Conditions at: PAYA (YAKUTAT , AK, US) observed 1601 UTC 18 October 2018
Temperature: 8.3°C (47°F)
Dewpoint: 6.7°C (44°F) [RH = 90%]
Pressure (altimeter): 30.10 inches Hg (1019.4 mb)
Winds: from the ENE (70 degrees) at 7 MPH (6 knots; 3.1 m/s)
Visibility: 10 or more miles (16+ km)
Ceiling: 3300 feet AGL
Clouds: few clouds at 2000 feet AGL
scattered clouds at 2700 feet AGL
overcast cloud deck at 3300 feet AGL
Weather: -RA  (light rain)

METAR text: PAYA 181553Z AUTO 05007KT 4SM R11/5500VP6000FT -RA BR FEW022 BKN027 OVC033 08/07 A3010 RMK AO2 SLP193 P0025 T00830067 TSNO
Conditions at: PAYA (YAKUTAT , AK, US) observed 1553 UTC 18 October 2018
Temperature: 8.3°C (47°F)
Dewpoint: 6.7°C (44°F) [RH = 90%]
Pressure (altimeter): 30.10 inches Hg (1019.4 mb)
[Sea-level pressure: 1019.3 mb]
Winds: from the NE (50 degrees) at 8 MPH (7 knots; 3.6 m/s)
Visibility: 4 miles ( 6 km)
Ceiling: 2700 feet AGL
Clouds: few clouds at 2200 feet AGL
broken clouds at 2700 feet AGL
overcast cloud deck at 3300 feet AGL
Weather: -RA BR  (light rain, mist)

Forecast for: PAYA (YAKUTAT , AK, US)
Text: PAYA 181624Z 1816/1912 08006KT P6SM -SHRA BKN025 OVC030
Forecast period: 1600 to 1800 UTC 18 October 2018
Forecast type: FROM: standard forecast or significant change
Winds: from the E (80 degrees) at 7 MPH (6 knots; 3.1 m/s)
Visibility: 6 or more miles 10+ km)
Ceiling: 2500 feet AGL
Clouds: broken clouds at 2500 feet AGL
overcast cloud deck at 3000 feet AGL
Weather: -SHRA  (light rain showers)
Text: FM181800 09005KT 6SM -SHRA BKN025
Forecast period: 1800 to 2100 UTC 18 October 2018
Forecast type: FROM: standard forecast or significant change
Winds: from the E (90 degrees) at 6 MPH (5 knots; 2.6 m/s)
Visibility: 6 miles (10 km)
Ceiling: 2500 feet AGL
Clouds: broken clouds at 2500 feet AGL
Weather: -SHRA  (light rain showers)
Text: FM182100 09008KT P6SM BKN050
Forecast period: 2100 UTC 18 October 2018 to 0600 UTC 19 October 2018
Forecast type: FROM: standard forecast or significant change
Winds: from the E (90 degrees) at 9 MPH (8 knots; 4.1 m/s)
Visibility: 6 or more miles 10+ km)
Ceiling: 5000 feet AGL
Clouds: broken clouds at 5000 feet AGL
Weather: no significant weather forecast for this period
Text: FM190600 09012KT P6SM -RA BKN025 OVC050
Forecast period: 0600 to 0900 UTC 19 October 2018
Forecast type: FROM: standard forecast or significant change
Winds: from the E (90 degrees) at 14 MPH (12 knots; 6.2 m/s)
Visibility: 6 or more miles 10+ km)
Ceiling: 2500 feet AGL
Clouds: broken clouds at 2500 feet AGL
overcast cloud deck at 5000 feet AGL
Weather: -RA  (light rain)
Text: FM190900 09015G25KT 5SM RA SCT020 BKN025 OVC050 WS020/13040KT AMD LTD TO CLD VIS AND WIND
Forecast period: 0900 to 1200 UTC 19 October 2018
Forecast type: FROM: standard forecast or significant change
Winds: from the E (90 degrees) at 17 MPH (15 knots; 7.7 m/s)
gusting to 29 MPH (25 knots; 12.9 m/s)
Visibility: 5 miles (8 km)
Ceiling: 2500 feet AGL
Clouds: scattered clouds at 2000 feet AGL
broken clouds at 2500 feet AGL
overcast cloud deck at 5000 feet AGL
Wind Shear: at 2000 feet ( 610 m) AGL, from the SE (130 degrees) at 46 MPH (40 knots; 20.8 m/s)
Weather: RA  (moderate rain)